Terminal Aerodrome Forecast
Issued by NWS Wilmington, OH

Current Version | Previous Version | Graphics & Text | Print | Product List | Glossary On
Versions: 1 2 3 4 5 6 7 8 9 10 11 12 13 14 15 16
000
FTUS41 KILN 101747
TAFILN
TAF
KILN 101747Z 1018/1118 23014G22KT P6SM OVC090
     FM102200 22010KT P6SM SCT150
     FM110000 22008KT P6SM BKN035
     FM110600 29005KT P6SM SCT200
     FM110900 VRB03KT P6SM SCT025
     FM111400 19005KT P6SM BKN100=

USA.gov is the U.S. government's official web portal to all federal, state and local government web resources and services.